Time;durP1;ratioP1;P1;durP2;ratioP2;P2;SDS_P1;SDS_P2;PMS_P1;PMS_P2;Temp;Humidity;BMP_temperature;BMP_pressure;BME280_temperature;BME280_humidity;BME280_pressure;Samples;Min_cycle;Max_cycle;Signal;HPM_P1;HPM_P2
2021/10/21 00:00:22;;;;;;;21.67;14.50;;;;;;;6.60;74.23;94171.59;5010116;28;20114;-44
2021/10/21 00:02:47;;;;;;;24.02;14.68;;;;;;;6.64;74.00;94169.34;5010286;28;20025;-44
2021/10/21 00:05:13;;;;;;;21.70;13.68;;;;;;;6.33;74.10;94145.00;5010018;28;20030;-44
2021/10/21 00:07:38;;;;;;;20.67;15.15;;;;;;;6.32;74.29;94165.47;5010318;28;20021;-45
2021/10/21 00:10:06;;;;;;;20.63;14.05;;;;;;;6.38;74.44;94155.97;5010151;28;20030;-45
2021/10/21 00:12:32;;;;;;;24.08;14.95;;;;;;;6.48;74.25;94159.91;5009906;28;20022;-46
2021/10/21 00:14:59;;;;;;;21.30;15.02;;;;;;;6.46;74.95;94156.19;5010133;28;20025;-43
2021/10/21 00:17:25;;;;;;;19.35;13.43;;;;;;;6.54;74.22;94152.41;5010130;28;20037;-43
2021/10/21 00:19:51;;;;;;;18.17;14.75;;;;;;;6.47;73.98;94154.94;5010036;28;20036;-43
2021/10/21 00:22:18;;;;;;;18.45;13.73;;;;;;;6.45;73.29;94147.22;5009686;28;20108;-44
2021/10/21 00:24:44;;;;;;;23.75;15.98;;;;;;;6.38;73.97;94153.22;5009704;28;20282;-44
2021/10/21 00:27:09;;;;;;;19.98;14.27;;;;;;;6.27;74.01;94158.75;5009957;28;20159;-45
2021/10/21 00:29:34;;;;;;;21.52;14.48;;;;;;;6.27;73.15;94147.78;5026957;28;20425;-45
2021/10/21 00:32:00;;;;;;;22.77;14.02;;;;;;;6.22;73.32;94145.03;5029409;28;20033;-45
2021/10/21 00:34:25;;;;;;;21.80;13.75;;;;;;;6.17;73.46;94145.81;5029230;28;20029;-45
2021/10/21 00:36:51;;;;;;;21.60;14.57;;;;;;;6.11;73.40;94143.09;5029318;28;20034;-44
2021/10/21 00:39:16;;;;;;;22.73;14.93;;;;;;;6.14;74.54;94139.34;5029071;28;20030;-45
2021/10/21 00:41:41;;;;;;;21.70;14.90;;;;;;;6.13;73.40;94142.59;5029214;28;20037;-44
2021/10/21 00:44:11;;;;;;;22.20;14.10;;;;;;;5.92;73.77;94129.19;5029445;28;20029;-43
2021/10/21 00:46:36;;;;;;;;;;;;;;;5.95;74.27;94130.19;5029687;28;20032;-44
2021/10/21 00:49:03;;;;;;;21.25;13.95;;;;;;;5.81;75.00;94129.19;5028105;28;19909;-40
2021/10/21 00:51:28;;;;;;;15.20;11.27;;;;;;;6.00;73.03;94124.69;5016405;28;20026;-42
2021/10/21 00:53:54;;;;;;;18.42;12.52;;;;;;;6.03;71.90;94129.16;5009483;28;20037;-41
2021/10/21 00:56:19;;;;;;;21.55;14.25;;;;;;;5.96;72.89;94126.94;5009554;28;20650;-41
2021/10/21 00:58:50;;;;;;;17.67;13.13;;;;;;;5.86;72.43;94124.97;5009485;28;20556;-41
2021/10/21 01:01:16;;;;;;;20.55;12.70;;;;;;;5.88;72.36;94128.72;5009225;28;20029;-41
2021/10/21 01:03:41;;;;;;;13.85;10.50;;;;;;;5.87;70.80;94129.94;5009100;28;20091;-41
2021/10/21 01:06:08;;;;;;;17.27;12.82;;;;;;;5.82;70.87;94119.72;5009090;28;20038;-41
2021/10/21 01:08:34;;;;;;;15.95;11.18;;;;;;;5.78;70.71;94115.75;5009374;28;20041;-42
2021/10/21 01:10:59;;;;;;;15.60;12.23;;;;;;;5.57;71.60;94122.75;5009314;28;20038;-41
2021/10/21 01:13:25;;;;;;;18.67;12.60;;;;;;;5.63;72.57;94118.75;5008034;28;20030;-41
2021/10/21 01:16:04;;;;;;;19.95;13.15;;;;;;;5.49;72.34;94119.03;5009207;28;20406;-40
2021/10/21 01:18:30;;;;;;;17.70;11.57;;;;;;;5.55;72.24;94114.28;5009006;28;20021;-41
2021/10/21 01:20:56;;;;;;;17.10;12.85;;;;;;;5.56;72.22;94115.78;5008828;28;20029;-41
2021/10/21 01:23:22;;;;;;;17.40;12.45;;;;;;;5.52;72.65;94113.31;5008836;28;20482;-41
2021/10/21 01:25:47;;;;;;;20.48;12.73;;;;;;;5.47;72.86;94105.09;5008828;28;20037;-41
2021/10/21 01:28:13;;;;;;;19.98;12.60;;;;;;;5.53;72.95;94103.06;5008555;28;20033;-42
2021/10/21 01:30:38;;;;;;;20.58;12.18;;;;;;;5.44;71.33;94106.81;5009091;28;20079;-42
2021/10/21 01:33:04;;;;;;;18.80;11.38;;;;;;;5.36;71.47;94106.59;5014623;28;20033;-42
2021/10/21 01:35:29;;;;;;;16.38;11.50;;;;;;;5.39;71.33;94097.38;5028718;28;20075;-45
2021/10/21 01:37:54;;;;;;;18.65;12.13;;;;;;;5.32;70.98;94100.63;5028585;28;20022;-44
2021/10/21 01:40:21;;;;;;;16.08;10.98;;;;;;;5.27;71.56;94093.16;5028281;28;20025;-44
2021/10/21 01:42:47;;;;;;;19.70;12.40;;;;;;;5.25;72.00;94097.63;5028643;28;20032;-45
2021/10/21 01:45:17;;;;;;;22.48;13.10;;;;;;;5.19;72.24;94097.66;5028589;28;20112;-44
2021/10/21 01:47:43;;;;;;;18.98;12.80;;;;;;;5.13;71.75;94093.41;5028505;28;20390;-43
2021/10/21 01:50:08;;;;;;;21.67;12.60;;;;;;;5.04;72.86;94085.44;5026331;28;20033;-44
2021/10/21 01:52:34;;;;;;;19.70;13.43;;;;;;;5.06;72.44;94083.72;5008295;28;20042;-43
2021/10/21 01:54:59;;;;;;;20.75;13.25;;;;;;;5.04;72.34;94080.72;5008723;28;20041;-44
2021/10/21 01:57:25;;;;;;;17.00;11.55;;;;;;;5.05;71.85;94092.41;5008530;28;20410;-42
2021/10/21 01:59:50;;;;;;;18.70;11.45;;;;;;;5.02;71.87;94090.66;5008657;28;20402;-42
2021/10/21 02:02:16;;;;;;;14.63;11.13;;;;;;;4.97;70.96;94088.66;5008538;28;20026;-42
2021/10/21 02:04:41;;;;;;;19.90;11.27;;;;;;;4.84;71.87;94088.41;5008218;28;20049;-42
2021/10/21 02:07:07;;;;;;;17.27;12.52;;;;;;;4.79;71.94;94091.88;5008512;28;20040;-43
2021/10/21 02:09:32;;;;;;;16.92;11.98;;;;;;;4.83;72.59;94086.94;5008127;28;20022;-43
2021/10/21 02:11:58;;;;;;;15.95;11.43;;;;;;;4.82;72.38;94085.44;5007526;28;20036;-40
2021/10/21 02:14:23;;;;;;;20.85;11.40;;;;;;;4.74;72.37;94098.09;5008040;28;20029;-40
2021/10/21 02:16:48;;;;;;;17.40;12.27;;;;;;;4.69;72.78;94091.38;5008089;28;20030;-40
2021/10/21 02:19:14;;;;;;;16.40;11.18;;;;;;;4.59;72.63;94090.84;5007831;28;20025;-40
2021/10/21 02:21:39;;;;;;;16.42;12.63;;;;;;;4.43;73.10;94052.56;5008274;28;20083;-40
2021/10/21 02:24:05;;;;;;;17.05;12.65;;;;;;;4.57;73.20;94074.19;5011084;28;20607;-40
2021/10/21 02:26:30;;;;;;;20.17;13.45;;;;;;;4.47;73.33;94064.75;5027638;28;20106;-39
2021/10/21 02:28:56;;;;;;;18.35;12.57;;;;;;;4.55;72.88;94075.94;5027523;28;20033;-40
2021/10/21 02:31:21;;;;;;;16.38;11.02;;;;;;;4.61;72.52;94082.19;5027514;28;20036;-40
2021/10/21 02:33:47;;;;;;;18.00;11.93;;;;;;;4.63;71.50;94080.41;5027687;28;20028;-40
2021/10/21 02:36:12;;;;;;;18.85;12.80;;;;;;;4.56;72.53;94082.91;5027814;28;20025;-41
2021/10/21 02:38:37;;;;;;;19.98;13.73;;;;;;;4.57;71.47;94085.13;5027796;28;20414;-42
2021/10/21 02:41:03;;;;;;;22.95;13.45;;;;;;;4.48;71.81;94074.44;5027659;28;20036;-42
2021/10/21 02:43:29;;;;;;;19.83;14.07;;;;;;;4.26;72.99;94066.19;5027428;28;20017;-42
2021/10/21 02:45:54;;;;;;;19.98;14.70;;;;;;;4.35;72.21;94076.88;5027578;28;20045;-41
2021/10/21 02:48:20;;;;;;;25.05;13.20;;;;;;;4.23;72.98;94069.91;5027682;28;20086;-41
2021/10/21 02:50:45;;;;;;;18.10;13.10;;;;;;;4.35;72.31;94071.41;5020644;28;20493;-41
2021/10/21 02:53:11;;;;;;;18.85;12.48;;;;;;;4.44;71.71;94068.47;5007269;28;20121;-41
2021/10/21 02:55:36;;;;;;;16.38;11.75;;;;;;;4.43;70.94;94071.69;5007540;28;20026;-41
2021/10/21 02:58:02;;;;;;;19.65;13.00;;;;;;;4.35;70.99;94060.47;5007753;28;20026;-42
2021/10/21 03:00:27;;;;;;;19.02;14.05;;;;;;;4.44;71.38;94067.72;5007470;28;20026;-41
2021/10/21 03:02:52;;;;;;;20.05;14.32;;;;;;;4.34;71.57;94069.94;5007404;28;20022;-41
2021/10/21 03:05:18;;;;;;;18.95;13.32;;;;;;;4.26;71.41;94063.47;5007397;28;20045;-42
2021/10/21 03:07:43;;;;;;;20.65;14.70;;;;;;;4.21;71.06;94066.91;5007674;28;20033;-42
2021/10/21 03:10:09;;;;;;;23.35;14.13;;;;;;;4.16;72.10;94064.91;5007241;28;20116;-42
2021/10/21 03:12:34;;;;;;;22.52;12.15;;;;;;;4.15;70.93;94063.44;5007158;28;20026;-42
2021/10/21 03:15:00;;;;;;;20.98;12.57;;;;;;;4.08;71.68;94058.44;5007590;28;20112;-42
2021/10/21 03:17:25;;;;;;;16.88;12.18;;;;;;;3.98;71.29;94054.44;5007472;28;20021;-43
2021/10/21 03:19:51;;;;;;;17.02;11.35;;;;;;;3.97;71.55;94055.66;5007234;28;20413;-41
2021/10/21 03:22:16;;;;;;;21.13;12.80;;;;;;;3.85;71.64;94051.41;5024524;28;20034;-42
2021/10/21 03:24:42;;;;;;;16.83;11.70;;;;;;;3.85;71.70;94052.13;5028286;28;20029;-41
2021/10/21 03:27:07;;;;;;;20.20;11.18;;;;;;;3.81;71.67;94045.44;5030630;28;20052;-42
2021/10/21 03:29:33;;;;;;;24.15;13.35;;;;;;;3.82;72.38;94042.19;5030641;28;20422;-41
2021/10/21 03:31:58;;;;;;;22.33;14.65;;;;;;;3.71;72.49;94050.34;5030545;28;20033;-41
2021/10/21 03:34:23;;;;;;;17.05;11.30;;;;;;;3.70;72.53;94051.56;5030505;28;20467;-41
2021/10/21 03:36:49;;;;;;;18.27;12.43;;;;;;;3.64;71.88;94048.06;5030196;28;20029;-41
2021/10/21 03:39:14;;;;;;;21.50;13.68;;;;;;;3.64;72.41;94047.31;5030478;28;20030;-42
2021/10/21 03:41:40;;;;;;;20.23;13.32;;;;;;;3.61;72.11;94040.88;5030444;28;20029;-42
2021/10/21 03:44:05;;;;;;;21.48;15.48;;;;;;;3.56;73.54;94035.34;5030064;28;20413;-42
2021/10/21 03:46:31;;;;;;;21.80;13.82;;;;;;;3.61;72.14;94034.66;5030361;28;20025;-42
2021/10/21 03:48:56;;;;;;;24.60;16.75;;;;;;;3.63;72.97;94024.75;5030016;28;20029;-42
2021/10/21 03:51:22;;;;;;;29.95;18.13;;;;;;;3.60;73.10;94027.69;5018142;28;20071;-41
2021/10/21 03:53:47;;;;;;;29.45;17.42;;;;;;;3.60;72.27;94022.22;5010045;28;20057;-42
2021/10/21 03:56:13;;;;;;;28.77;17.05;;;;;;;3.61;72.30;94029.94;5010497;28;20033;-41
2021/10/21 03:58:38;;;;;;;32.67;18.38;;;;;;;3.57;72.30;94028.69;5010138;28;20026;-41
2021/10/21 04:01:04;;;;;;;26.55;16.65;;;;;;;3.61;72.32;94027.22;5010137;28;20042;-41
2021/10/21 04:03:29;;;;;;;30.67;18.90;;;;;;;3.56;72.92;94014.28;5010393;28;20026;-41
2021/10/21 04:05:55;;;;;;;28.02;18.17;;;;;;;3.57;73.13;94015.75;5010029;28;20079;-41
2021/10/21 04:08:21;;;;;;;28.45;17.65;;;;;;;3.56;72.50;94021.72;5010075;28;20030;-41
2021/10/21 04:10:46;;;;;;;27.08;15.70;;;;;;;3.54;72.68;94014.03;5010195;28;20030;-41
2021/10/21 04:13:12;;;;;;;24.77;15.80;;;;;;;3.48;72.04;94017.97;5009896;28;20551;-42
2021/10/21 04:15:37;;;;;;;24.65;14.43;;;;;;;3.43;72.74;94021.41;5010224;28;20022;-42
2021/10/21 04:18:03;;;;;;;23.70;14.48;;;;;;;3.44;72.21;94014.72;5023434;28;20086;-41
2021/10/21 04:20:28;;;;;;;23.80;15.27;;;;;;;3.43;72.75;94008.50;5029856;28;20033;-41
2021/10/21 04:22:54;;;;;;;30.10;16.65;;;;;;;3.35;73.00;94002.03;5029714;28;20441;-41
2021/10/21 04:25:19;;;;;;;28.02;16.65;;;;;;;3.34;72.37;94007.94;5029547;28;20482;-41
2021/10/21 04:27:44;;;;;;;30.67;18.17;;;;;;;3.20;73.43;93984.31;5029732;28;20037;-41
2021/10/21 04:30:11;;;;;;;31.70;17.85;;;;;;;3.15;73.31;93985.03;5029652;28;20029;-41
2021/10/21 04:32:37;;;;;;;43.22;21.23;;;;;;;3.30;73.37;94001.97;5029248;28;20028;-41
2021/10/21 04:35:02;;;;;;;45.25;21.33;;;;;;;3.28;73.16;94001.72;5029217;28;20100;-41
2021/10/21 04:37:28;;;;;;;41.47;23.98;;;;;;;3.12;73.04;93981.28;5029638;28;20025;-41
2021/10/21 04:39:53;;;;;;;40.60;21.00;;;;;;;3.11;74.58;93992.69;5029212;28;20030;-41
2021/10/21 04:42:18;;;;;;;49.65;20.65;;;;;;;2.99;74.32;93998.06;5029540;28;20033;-42
2021/10/21 04:44:44;;;;;;;45.00;19.42;;;;;;;2.79;75.15;94000.94;5029522;28;20078;-42
2021/10/21 04:47:10;;;;;;;34.45;18.63;;;;;;;3.12;75.04;93994.19;5029082;28;20052;-42
2021/10/21 04:49:36;;;;;;;35.35;17.05;;;;;;;3.23;74.50;93988.81;5028950;28;20033;-41
2021/10/21 04:52:02;;;;;;;41.78;19.75;;;;;;;3.34;73.85;94002.50;5011780;28;20133;-42
2021/10/21 04:54:28;;;;;;;46.40;19.02;;;;;;;3.27;74.31;93998.25;5009616;28;20509;-42
2021/10/21 04:56:53;;;;;;;31.10;17.48;;;;;;;3.30;74.25;93994.53;5009562;28;20034;-42
2021/10/21 04:59:18;;;;;;;48.72;16.88;;;;;;;3.35;75.26;93988.38;5009488;28;20026;-42
2021/10/21 05:01:44;;;;;;;24.17;15.05;;;;;;;3.41;74.92;93989.13;5009453;28;20457;-43
2021/10/21 05:04:09;;;;;;;41.08;14.05;;;;;;;3.39;75.19;93988.88;5009387;28;20025;-42
2021/10/21 05:06:35;;;;;;;29.52;11.75;;;;;;;3.38;75.78;93981.19;5009117;28;20185;-41
2021/10/21 05:09:01;;;;;;;28.33;13.48;;;;;;;3.47;76.06;93989.91;5009404;28;20037;-41
2021/10/21 05:11:26;;;;;;;36.40;13.77;;;;;;;3.54;75.49;93991.44;5009277;28;20034;-41
2021/10/21 05:13:52;;;;;;;29.45;14.63;;;;;;;3.56;74.80;93988.94;5020232;28;20025;-42
2021/10/21 05:16:17;;;;;;;34.22;14.00;;;;;;;3.71;75.51;93990.25;5028932;28;20041;-42
2021/10/21 05:18:43;;;;;;;28.40;16.00;;;;;;;3.68;75.49;93985.03;5029013;28;20030;-41
2021/10/21 05:21:09;;;;;;;29.55;15.15;;;;;;;3.66;75.10;93984.78;5028908;28;20486;-41
2021/10/21 05:23:34;;;;;;;45.92;24.02;;;;;;;3.56;74.73;93981.50;5028856;28;20490;-41
2021/10/21 05:26:00;;;;;;;39.25;24.30;;;;;;;3.49;74.65;93984.69;5028557;28;20028;-41
2021/10/21 05:28:25;;;;;;;45.92;24.50;;;;;;;3.27;74.81;93989.31;5028831;28;20021;-41
2021/10/21 05:30:51;;;;;;;47.85;27.25;;;;;;;3.42;74.05;93982.44;5028709;28;20036;-41
2021/10/21 05:33:16;;;;;;;40.20;21.77;;;;;;;3.44;73.83;93992.88;5028643;28;20386;-41
2021/10/21 05:35:42;;;;;;;31.55;18.42;;;;;;;3.25;73.54;93994.53;5028448;28;20029;-41
2021/10/21 05:38:07;;;;;;;31.75;19.73;;;;;;;3.48;73.54;93987.94;5028230;28;20030;-42
2021/10/21 05:40:32;;;;;;;29.42;19.55;;;;;;;3.54;73.44;93983.25;5028230;28;20072;-41
2021/10/21 05:42:58;;;;;;;28.23;19.58;;;;;;;3.57;73.95;93980.25;5028269;28;20017;-42
2021/10/21 05:45:24;;;;;;;33.08;20.02;;;;;;;3.59;74.17;93972.34;5028526;28;20037;-42
2021/10/21 05:47:49;;;;;;;31.90;20.70;;;;;;;3.70;74.11;93985.31;5027305;28;20030;-44
2021/10/21 05:50:15;;;;;;;37.00;26.20;;;;;;;3.77;73.93;93984.81;5014891;28;20042;-41
2021/10/21 05:52:41;;;;;;;42.47;28.33;;;;;;;3.80;73.60;93978.38;5025690;28;20049;-42
2021/10/21 05:55:07;;;;;;;66.68;40.80;;;;;;;3.87;74.18;93977.91;5026027;28;20490;-41
2021/10/21 05:57:33;;;;;;;99.43;63.90;;;;;;;3.91;74.10;93981.13;5025917;28;20125;-43
2021/10/21 05:59:59;;;;;;;92.07;60.38;;;;;;;4.02;73.74;93978.44;5025272;28;20491;-43
2021/10/21 06:02:24;;;;;;;69.32;44.60;;;;;;;4.05;74.28;93976.72;5025750;28;20029;-42
2021/10/21 06:04:50;;;;;;;84.45;48.03;;;;;;;4.11;74.01;93978.22;5025701;28;20116;-43
2021/10/21 06:07:15;;;;;;;81.72;53.28;;;;;;;4.22;73.81;93970.00;5025777;28;20040;-42
2021/10/21 06:09:41;;;;;;;75.50;48.47;;;;;;;4.31;74.38;93969.78;5026142;28;20026;-43
2021/10/21 06:24:57;;;;;;;56.22;39.05;;;;;;;5.55;71.29;93969.88;5125299;27;20610;-43
2021/10/21 06:27:23;;;;;;;46.63;33.83;;;;;;;5.50;72.00;93972.63;5122783;27;20110;-44
2021/10/21 06:29:48;;;;;;;43.65;32.10;;;;;;;5.27;72.94;93969.22;5112519;28;20053;-44
2021/10/21 06:32:17;;;;;;;35.95;25.92;;;;;;;5.20;74.30;93961.50;5105382;27;20476;-44
2021/10/21 06:34:42;;;;;;;36.80;26.60;;;;;;;5.37;74.33;93965.69;5104026;28;20039;-43
2021/10/21 06:37:08;;;;;;;35.10;24.35;;;;;;;5.48;74.90;93962.16;5108761;28;20526;-43
2021/10/21 06:39:33;;;;;;;47.67;28.85;;;;;;;5.36;75.78;93947.78;5124996;27;20027;-44
2021/10/21 06:41:59;;;;;;;49.65;28.42;;;;;;;5.62;75.86;93947.44;5122061;27;20063;-42
2021/10/21 06:44:24;;;;;;;56.22;29.38;;;;;;;5.94;75.68;93958.75;5122819;27;20031;-44
2021/10/21 06:46:50;;;;;;;46.78;30.63;;;;;;;6.39;75.04;93954.50;5122017;28;20105;-42
2021/10/21 06:49:15;;;;;;;35.55;24.00;;;;;;;7.16;72.37;93953.13;5105536;27;20020;-43
2021/10/21 06:51:40;;;;;;;26.83;20.45;;;;;;;7.99;69.75;93941.16;5104271;28;20020;-43
2021/10/21 06:54:06;;;;;;;33.22;21.88;;;;;;;8.70;67.37;93943.41;5106761;28;20026;-43
2021/10/21 06:56:31;;;;;;;23.52;17.65;;;;;;;9.43;64.98;93938.13;5117280;28;20028;-40
2021/10/21 06:58:58;;;;;;;22.13;17.80;;;;;;;10.06;63.59;93939.91;5109608;27;20030;-41
2021/10/21 07:01:24;;;;;;;22.40;16.52;;;;;;;10.68;61.32;93940.06;5124646;27;20019;-42
2021/10/21 07:03:49;;;;;;;27.33;19.83;;;;;;;11.39;59.55;93940.31;5124354;27;20015;-41
2021/10/21 07:06:15;;;;;;;23.95;18.98;;;;;;;12.26;57.06;93930.09;5124386;27;20023;-42
2021/10/21 07:08:40;;;;;;;21.58;18.40;;;;;;;12.88;54.66;93929.72;5124061;27;20026;-41
2021/10/21 07:11:06;;;;;;;23.23;19.55;;;;;;;13.37;53.99;93918.28;5124487;27;20028;-41
2021/10/21 07:13:32;;;;;;;26.80;20.40;;;;;;;13.65;53.02;93918.06;5117456;27;20047;-41
2021/10/21 07:15:57;;;;;;;27.90;21.58;;;;;;;13.67;53.76;93909.94;5108528;27;20027;-42
2021/10/21 07:18:23;;;;;;;27.92;21.27;;;;;;;14.57;51.45;93911.69;5103816;28;20027;-42
2021/10/21 07:20:48;;;;;;;35.22;22.73;;;;;;;15.24;50.27;93906.97;5103558;28;20027;-42
2021/10/21 07:23:14;;;;;;;30.70;22.08;;;;;;;16.10;48.15;93907.09;5103462;28;20047;-42
2021/10/21 07:25:39;;;;;;;23.58;18.15;;;;;;;16.46;47.95;93898.88;5091541;28;20545;-42
2021/10/21 07:28:05;;;;;;;28.25;18.88;;;;;;;16.37;47.84;93900.28;5090289;28;20119;-42
2021/10/21 07:30:30;;;;;;;27.65;18.55;;;;;;;16.60;48.13;93897.97;5089847;28;20028;-42
2021/10/21 07:32:58;;;;;;;23.38;18.17;;;;;;;16.84;47.39;93895.59;5088915;28;20048;-42
2021/10/21 07:35:24;;;;;;;21.60;17.35;;;;;;;17.24;46.95;93893.88;5089809;28;20028;-43
2021/10/21 07:37:50;;;;;;;20.67;14.73;;;;;;;17.85;45.26;93878.91;5089495;28;20089;-42
2021/10/21 07:40:16;;;;;;;14.88;11.88;;;;;;;18.29;44.14;93875.84;5089762;28;20032;-43
2021/10/21 07:42:42;;;;;;;12.65;9.23;;;;;;;18.81;41.22;93874.75;5089840;28;20027;-42
2021/10/21 07:45:08;;;;;;;11.95;10.75;;;;;;;19.20;42.00;93875.38;5083370;28;20032;-42
2021/10/21 07:47:35;;;;;;;13.15;10.80;;;;;;;20.46;40.23;93871.22;5083555;28;20065;-42
2021/10/21 07:50:02;;;;;;;14.85;10.88;;;;;;;21.40;38.26;93865.19;5084458;28;20025;-42
2021/10/21 07:52:28;;;;;;;14.65;12.88;;;;;;;21.79;36.90;93863.34;5079685;28;20634;-42
2021/10/21 07:54:53;;;;;;;13.45;9.48;;;;;;;21.44;38.05;93865.44;5078275;28;20032;-43
2021/10/21 07:57:20;;;;;;;9.52;7.80;;;;;;;20.98;36.89;93868.19;5078842;28;20036;-44
2021/10/21 07:59:46;;;;;;;11.05;9.30;;;;;;;21.08;37.91;93863.97;5079540;28;20055;-43
2021/10/21 08:02:12;;;;;;;11.85;10.23;;;;;;;21.52;37.51;93860.31;5077231;28;20675;-43
2021/10/21 08:04:38;;;;;;;9.60;8.45;;;;;;;21.93;35.48;93846.59;5077512;28;20035;-42
2021/10/21 08:07:03;;;;;;;8.45;7.55;;;;;;;21.60;35.03;93860.06;5073962;28;20068;-42
2021/10/21 08:09:30;;;;;;;8.73;7.65;;;;;;;21.53;36.12;93838.56;5080556;28;20020;-44
2021/10/21 08:11:59;;;;;;;10.00;8.20;;;;;;;21.99;35.41;93824.44;5097348;28;20483;-44
2021/10/21 08:14:24;;;;;;;9.65;8.70;;;;;;;23.28;34.19;93837.28;5104289;28;20107;-42
2021/10/21 08:16:51;;;;;;;7.88;6.90;;;;;;;24.45;30.89;93840.50;5109386;28;20126;-42
2021/10/21 08:19:16;;;;;;;10.05;7.82;;;;;;;24.55;28.96;93846.63;5093713;27;20040;-42
2021/10/21 08:21:42;;;;;;;7.97;7.22;;;;;;;23.97;30.92;93816.94;5088369;28;20089;-43
2021/10/21 08:24:07;;;;;;;8.93;6.80;;;;;;;24.15;30.87;93844.63;5088096;28;20067;-42
2021/10/21 08:26:33;;;;;;;7.25;6.47;;;;;;;24.69;28.38;93841.63;5087531;28;20040;-41
2021/10/21 08:29:00;;;;;;;9.18;6.65;;;;;;;24.27;29.16;93836.75;5075793;28;20029;-41
2021/10/21 08:31:25;;;;;;;8.65;7.75;;;;;;;23.35;31.08;93839.81;5068514;28;20028;-41
2021/10/21 08:33:51;;;;;;;7.90;7.10;;;;;;;24.60;31.10;93842.63;5093996;28;20035;-42
2021/10/21 08:36:20;;;;;;;7.45;6.68;;;;;;;26.09;27.67;93849.53;5107818;28;20027;-43
2021/10/21 08:38:49;;;;;;;7.68;6.93;;;;;;;26.35;26.67;93841.41;5108853;28;20483;-40
2021/10/21 08:41:15;;;;;;;8.32;7.40;;;;;;;25.75;27.57;93845.88;5108925;28;20084;-43
2021/10/21 08:43:42;;;;;;;8.20;7.40;;;;;;;24.40;28.87;93841.66;5091581;28;20035;-42
2021/10/21 08:46:10;;;;;;;8.13;7.38;;;;;;;22.57;31.61;93841.09;5080273;28;20024;-43
2021/10/21 08:48:38;;;;;;;7.77;6.97;;;;;;;22.00;33.33;93837.19;5077999;28;20028;-42
2021/10/21 08:51:05;;;;;;;8.15;7.35;;;;;;;21.78;34.62;93838.66;5075805;28;20567;-41
2021/10/21 08:53:32;;;;;;;7.97;6.70;;;;;;;21.45;33.91;93821.22;5076310;28;20020;-43
2021/10/21 08:55:57;;;;;;;9.30;7.00;;;;;;;21.42;33.92;93837.22;5077798;28;20114;-42
2021/10/21 08:58:25;;;;;;;8.95;7.70;;;;;;;21.61;33.83;93836.94;5075930;28;20054;-42
2021/10/21 09:00:59;;;;;;;11.07;8.25;;;;;;;21.28;34.15;93833.56;5076689;28;20034;-41
2021/10/21 09:03:43;;;;;;;7.82;7.00;;;;;;;21.56;33.76;93823.28;5075609;28;20525;-42
2021/10/21 09:06:21;;;;;;;10.30;8.15;;;;;;;21.72;34.33;93819.34;5081953;28;20465;-41
2021/10/21 09:08:47;;;;;;;9.07;7.07;;;;;;;22.57;31.18;93810.88;5077583;28;20051;-42
2021/10/21 09:11:19;;;;;;;7.05;6.20;;;;;;;23.57;30.29;93809.25;5076363;28;20032;-43
2021/10/21 09:13:45;;;;;;;8.73;7.25;;;;;;;23.43;29.63;93800.06;5078452;28;20157;-43
2021/10/21 09:16:11;;;;;;;8.00;6.20;;;;;;;23.78;29.23;93805.38;5073634;28;20032;-45
2021/10/21 09:18:56;;;;;;;7.18;6.50;;;;;;;24.54;29.03;93805.63;5065809;28;20097;-43
2021/10/21 09:21:30;;;;;;;7.10;6.43;;;;;;;25.27;29.45;93804.13;5071915;28;20035;-44
2021/10/21 09:23:58;;;;;;;8.60;6.30;;;;;;;24.81;27.10;93788.59;5084887;28;20069;-43
2021/10/21 09:26:23;;;;;;;12.80;5.90;;;;;;;24.90;26.85;93801.00;5085069;28;20097;-42
2021/10/21 09:28:49;;;;;;;8.05;6.43;;;;;;;25.70;27.86;93787.69;5086410;28;20123;-44
2021/10/21 09:31:15;;;;;;;7.05;6.35;;;;;;;24.74;27.39;93798.88;5086852;28;20454;-43
2021/10/21 09:33:44;;;;;;;7.00;6.32;;;;;;;25.53;27.79;93785.53;5086417;28;20389;-41
2021/10/21 09:36:10;;;;;;;8.15;6.03;;;;;;;26.57;24.83;93777.91;5080191;28;20023;-42
2021/10/21 09:38:36;;;;;;;7.50;6.65;;;;;;;26.94;24.31;93771.59;5099243;28;20063;-43
2021/10/21 09:41:17;;;;;;;7.90;7.20;;;;;;;27.06;25.99;93774.88;5085683;28;20028;-43
2021/10/21 09:43:43;;;;;;;14.93;7.53;;;;;;;27.64;24.63;93762.88;5090043;28;20817;-44
2021/10/21 09:46:27;;;;;;;8.82;6.85;;;;;;;28.31;23.48;93754.56;5087000;28;20032;-43
2021/10/21 09:49:26;;;;;;;6.35;5.78;;;;;;;27.18;23.96;93752.66;5086941;28;20077;-43
2021/10/21 09:51:52;;;;;;;6.95;6.20;;;;;;;27.75;23.37;93749.78;5088386;28;20050;-43
2021/10/21 09:54:18;;;;;;;7.00;6.30;;;;;;;27.96;24.53;93751.22;5089980;28;20704;-45
2021/10/21 09:57:03;;;;;;;6.15;5.50;;;;;;;25.84;25.68;93750.78;5107773;28;20023;-43
2021/10/21 09:59:40;;;;;;;8.27;7.57;;;;;;;27.32;26.09;93743.94;5095571;28;20024;-43
2021/10/21 10:02:16;;;;;;;7.32;6.05;;;;;;;27.40;24.22;93745.00;5086915;28;20035;-43
2021/10/21 10:04:54;;;;;;;7.43;6.07;;;;;;;27.24;24.55;93733.03;5088210;28;20035;-43
2021/10/21 10:07:21;;;;;;;10.98;6.93;;;;;;;25.84;27.62;93733.81;5076774;28;20484;-42
2021/10/21 10:09:48;;;;;;;7.13;6.45;;;;;;;26.69;24.85;93726.66;5072606;28;20040;-41
2021/10/21 10:12:14;;;;;;;6.13;5.60;;;;;;;27.71;23.45;93724.09;5066109;28;20515;-44
2021/10/21 10:14:44;;;;;;;11.88;8.63;;;;;;;28.94;23.60;93725.28;5075259;28;20032;-44
2021/10/21 10:17:11;;;;;;;6.55;5.88;;;;;;;30.04;21.96;93713.47;5087351;28;20028;-43
2021/10/21 10:19:44;;;;;;;7.63;6.47;;;;;;;29.83;21.29;93717.94;5086850;28;20028;-44
2021/10/21 10:22:12;;;;;;;6.50;5.90;;;;;;;29.14;21.12;93717.38;5078061;28;20017;-44
2021/10/21 10:24:38;;;;;;;7.22;6.03;;;;;;;27.73;23.00;93707.88;5066656;28;20044;-44
2021/10/21 10:27:22;;;;;;;6.10;5.50;;;;;;;27.10;24.13;93697.75;5066855;28;20032;-44
2021/10/21 10:29:48;;;;;;;7.90;6.78;;;;;;;27.56;23.99;93697.34;5067140;28;20280;-44
2021/10/21 10:32:35;;;;;;;7.10;6.40;;;;;;;28.13;22.79;93690.78;5083237;28;20488;-42
2021/10/21 10:35:03;;;;;;;7.85;6.70;;;;;;;28.94;22.32;93694.75;5087161;28;20034;-43
2021/10/21 10:37:29;;;;;;;;;;;;;;;29.66;21.99;93690.41;5070830;28;20041;-43
2021/10/21 10:39:59;;;;;;;7.07;6.43;;;;;;;29.11;21.48;93682.44;5066692;28;20290;-44
2021/10/21 10:42:31;;;;;;;8.30;7.50;;;;;;;29.58;22.55;93678.09;5074205;28;20028;-44
2021/10/21 10:44:59;;;;;;;7.38;6.65;;;;;;;27.20;22.91;93666.97;5077198;28;20038;-43
2021/10/21 10:47:44;;;;;;;7.88;6.68;;;;;;;27.81;23.17;93662.00;5081695;28;20027;-44
2021/10/21 10:50:16;;;;;;;8.20;7.45;;;;;;;27.84;24.83;93659.97;5086334;28;20070;-43
2021/10/21 10:52:50;;;;;;;6.20;5.70;;;;;;;27.09;23.28;93654.53;5084996;28;20657;-45
2021/10/21 10:55:17;;;;;;;6.63;5.47;;;;;;;26.53;26.47;93650.28;5076919;28;20031;-44
2021/10/21 10:57:42;;;;;;;6.50;5.82;;;;;;;27.19;24.11;93648.50;5090397;28;20024;-43
2021/10/21 11:00:36;;;;;;;11.80;6.75;;;;;;;28.46;24.76;93642.84;5082970;28;20798;-42
2021/10/21 11:03:02;;;;;;;6.78;6.18;;;;;;;29.25;23.08;93648.03;5080696;28;20108;-42
2021/10/21 11:05:43;;;;;;;6.55;5.50;;;;;;;28.39;22.24;93643.34;5082826;28;20040;-42
2021/10/21 11:08:13;;;;;;;7.20;6.50;;;;;;;26.23;24.80;93635.72;5091580;28;20050;-41
2021/10/21 11:10:40;;;;;;;8.75;6.57;;;;;;;25.58;27.39;93643.69;5084917;28;20119;-42
2021/10/21 11:13:23;;;;;;;7.70;5.72;;;;;;;26.64;24.38;93632.31;5071473;28;20040;-42
2021/10/21 11:15:49;;;;;;;6.85;6.20;;;;;;;26.63;24.40;93639.38;5073687;28;20032;-42
2021/10/21 11:18:50;;;;;;;7.40;6.22;;;;;;;25.25;26.18;93637.28;5089951;28;20043;-42
2021/10/21 11:21:53;;;;;;;8.65;6.07;;;;;;;24.21;28.02;93631.22;5089506;28;20032;-43
2021/10/21 11:24:47;;;;;;;7.25;6.55;;;;;;;24.78;29.07;93631.72;5090447;28;20048;-42
2021/10/21 11:27:14;;;;;;;6.03;5.53;;;;;;;25.97;25.37;93623.34;5089195;28;20035;-43
2021/10/21 11:29:40;;;;;;;7.50;6.30;;;;;;;25.71;26.67;93624.41;5088724;28;20127;-44
2021/10/21 11:32:07;;;;;;;8.30;5.57;;;;;;;25.72;26.21;93618.09;5089239;28;20055;-43
2021/10/21 11:34:33;;;;;;;7.55;6.25;;;;;;;25.81;25.84;93607.81;5088970;28;20020;-43
2021/10/21 11:36:58;;;;;;;6.72;6.13;;;;;;;26.26;25.32;93600.47;5089148;28;20511;-42
2021/10/21 11:39:34;;;;;;;6.57;5.97;;;;;;;26.56;25.74;93602.97;5089136;28;20028;-42